Arjay, KY

2:41 PM EST on March 02, 2015 (GMT -0500)
liford's | Change Station
CLOSE
Current Station
Personal Weather Station
Location: Barbourville, KY
Elevation: 1066 ft
Nearby Weather Stations

Elev 1066 ft 36.84 °N, 83.85 °W | Updated 13 minutes ago

Clear
Clear
49.3 °F
Feels Like 48 °F
N
3.7
Wind Variable Wind from ESE

Today
High -- | Low -- °F
--% Chance of Precip.
Yesterday
High -- | Low -- °F
Precip. -- in
7:04 AM 6:29 PM
Waxing Gibbous, 92% visible
Pressure 30.38 in
Visibility 10.0 miles
Clouds Clear
Windchill 48 °F
Dew Point 28 °F
Humidity 44%
Rainfall 0.30 in
Snow Depth Not available.
UV 6 out of 12
Pollen 1.70 out of 12
Air Quality Not available.
Flu Activity Not available.
METAR K1A6 021915Z AUTO 00000KT 10SM CLR 06/M02 A3038 RMK AO2 T00591018

More Conditions Fewer Conditions

Pressure 30.38 in
Visibility 10.0 miles
Clouds Clear
Windchill 48 °F
Dew Point 28 °F
Humidity 44%
Rainfall 0.30 in
Snow Depth Not available.
UV 6 out of 12
Pollen 1.70 out of 12
Air Quality Not available.
Flu Activity Not available.
METAR K1A6 021915Z AUTO 00000KT 10SM CLR 06/M02 A3038 RMK AO2 T00591018

More Conditions Fewer Conditions

10-Day Weather Forecast

Almanac

Astronomy

Mar. 02, 2015 Rise Set
Actual Time
Civil Twilight
Nautical Twilight
Astronomical Twilight
Moon
Length of Visible Light
Length of Day
Tomorrow will be .
, % of the Moon is Illuminated

Today's Extremes

State Highs State Lows

Community

WunderPhotos

Upload Photos

1,801,922 photos uploaded!

WunderBlogs® & News

Nearby

Air Quality

  Air Quality AQ Index Pollutant
Not available.

Snow Depth

Station Depth Elevation

Earthquake Activity

City Distance Mag. Time & Date
Minimum magnitude displayed is 2.5.

Coastal Water Temperatures

Place Temperature

Nearby Weather Stations